createdAt,value
2023-10-03T00:00:54.909Z,101013.34
2023-10-03T00:03:31.731Z,100981.44
2023-10-03T00:06:11.163Z,100987.53
2023-10-03T00:08:49.726Z,100982.81
2023-10-03T00:11:30.427Z,100996.13
2023-10-03T00:14:01.408Z,100998.34
2023-10-03T00:16:41.468Z,100956.66
2023-10-03T00:19:13.282Z,100978.94
2023-10-03T00:21:58.267Z,100977.44
2023-10-03T00:24:36.270Z,100955.66
2023-10-03T00:27:15.647Z,100960.22
2023-10-03T00:29:47.511Z,100935.91
2023-10-03T00:32:21.538Z,100969.13
2023-10-03T00:34:58.237Z,100928.25
2023-10-03T00:37:36.576Z,100922.16
2023-10-03T00:40:22.645Z,100948.38
2023-10-03T00:42:57.545Z,100908.84
2023-10-03T00:45:30.952Z,100915.28
2023-10-03T00:48:09.977Z,100922.69
2023-10-03T00:50:46.850Z,100927.09
2023-10-03T00:53:28.507Z,100909.91
2023-10-03T00:56:02.670Z,100910.09
2023-10-03T00:58:40.364Z,100922.81
2023-10-03T01:01:13.567Z,100905.97
2023-10-03T01:03:51.661Z,100887.13
2023-10-03T01:06:26.320Z,100869.16
2023-10-03T01:09:08.385Z,100870.88
2023-10-03T01:11:35.651Z,100853.69
2023-10-03T01:14:13.493Z,100846.13
2023-10-03T01:16:51.788Z,100878.03
2023-10-03T01:19:30.706Z,100838.09
2023-10-03T01:22:03.577Z,100830.38
2023-10-03T01:24:39.349Z,100832.09
2023-10-03T01:27:07.328Z,100831.09
2023-10-03T01:29:44.632Z,100848.47
2023-10-03T01:32:15.011Z,100838.19
2023-10-03T01:34:42.993Z,100835.84
2023-10-03T01:37:23.331Z,100818.50
2023-10-03T01:39:56.560Z,100811.75
2023-10-03T01:42:37.415Z,100786.81
2023-10-03T01:45:14.559Z,100789.50
2023-10-03T01:47:53.551Z,100779.09
2023-10-03T01:50:25.160Z,100778.06
2023-10-03T01:53:00.538Z,100771.50
2023-10-03T01:55:32.861Z,100771.16
2023-10-03T01:58:06.485Z,100751.63
2023-10-03T02:00:41.012Z,100764.53
2023-10-03T02:03:20.624Z,100735.25
2023-10-03T02:05:55.177Z,100731.00
2023-10-03T02:08:35.554Z,100697.28
2023-10-03T02:11:07.593Z,100696.88
2023-10-03T02:13:42.542Z,100685.94
2023-10-03T02:16:12.354Z,100701.69
2023-10-03T02:18:55.243Z,100662.25
2023-10-03T02:21:28.960Z,100680.88
2023-10-03T02:24:13.094Z,100668.75
2023-10-03T02:26:46.780Z,100645.88
2023-10-03T02:29:21.445Z,100646.19
2023-10-03T02:31:51.300Z,100631.69
2023-10-03T02:34:31.605Z,100659.22
2023-10-03T02:37:13.953Z,100628.09
2023-10-03T02:39:52.521Z,100659.03
2023-10-03T02:42:35.574Z,100621.88
2023-10-03T02:45:09.635Z,100652.47
2023-10-03T02:47:47.421Z,100620.63
2023-10-03T02:50:27.778Z,100599.22
2023-10-03T02:53:10.308Z,100616.31
2023-10-03T02:55:44.700Z,100633.97
2023-10-03T02:58:34.584Z,100591.25
2023-10-03T03:01:11.593Z,100599.94
2023-10-03T03:03:46.701Z,100595.44
2023-10-03T03:06:26.945Z,100598.44
2023-10-03T03:09:01.795Z,100596.56
2023-10-03T03:11:36.554Z,100591.13
2023-10-03T03:14:04.257Z,100610.56
2023-10-03T03:16:38.496Z,100584.16
2023-10-03T03:19:07.009Z,100618.94
2023-10-03T03:21:44.510Z,100624.34
2023-10-03T03:24:22.640Z,100611.94
2023-10-03T03:27:07.140Z,100586.56
2023-10-03T03:29:44.649Z,100576.97
2023-10-03T03:32:14.989Z,100612.13
2023-10-03T03:34:53.536Z,100620.50
2023-10-03T03:37:26.586Z,100596.16
2023-10-03T03:40:05.520Z,100584.88
2023-10-03T03:42:51.328Z,100592.50
2023-10-03T03:45:38.444Z,100600.59
2023-10-03T03:48:14.844Z,100603.59
2023-10-03T03:50:48.771Z,100605.94
2023-10-03T03:53:26.570Z,100605.75
2023-10-03T03:55:59.679Z,100586.91
2023-10-03T03:58:38.534Z,100598.47
2023-10-03T04:01:18.250Z,100606.81
2023-10-03T04:04:10.693Z,100591.50
2023-10-03T04:06:45.750Z,100581.28
2023-10-03T04:09:20.813Z,100590.78
2023-10-03T04:11:57.720Z,100596.13
2023-10-03T04:14:25.571Z,100574.22
2023-10-03T04:17:03.560Z,100595.00
2023-10-03T04:19:37.934Z,100564.25
2023-10-03T04:22:14.656Z,100591.50
2023-10-03T04:24:50.489Z,100554.47
2023-10-03T04:27:27.100Z,100579.69
2023-10-03T04:30:01.593Z,100569.50
2023-10-03T04:32:40.242Z,100543.78
2023-10-03T04:35:22.761Z,100579.47
2023-10-03T04:38:15.258Z,100575.28
2023-10-03T04:40:43.115Z,100585.25
2023-10-03T04:43:22.653Z,100562.31
2023-10-03T04:45:59.723Z,100611.63
2023-10-03T04:48:39.775Z,100578.22
2023-10-03T04:51:07.404Z,100585.22
2023-10-03T04:53:43.144Z,100577.09
2023-10-03T04:56:13.322Z,100585.50
2023-10-03T04:58:49.628Z,100583.94
2023-10-03T05:01:29.824Z,100598.75
2023-10-03T05:04:13.968Z,100583.44
2023-10-03T05:06:45.053Z,100609.28
2023-10-03T05:09:37.575Z,100589.66
2023-10-03T05:12:15.627Z,100578.56
2023-10-03T05:14:55.972Z,100581.66
2023-10-03T05:17:36.537Z,100579.28
2023-10-03T05:20:05.316Z,100608.84
2023-10-03T05:22:40.571Z,100619.00
2023-10-03T05:25:13.197Z,100597.38
2023-10-03T05:27:50.685Z,100595.00
2023-10-03T05:30:31.084Z,100576.19
2023-10-03T05:33:06.730Z,100584.41
2023-10-03T05:35:37.616Z,100625.63
2023-10-03T05:38:18.913Z,100640.75
2023-10-03T05:40:47.856Z,100613.13
2023-10-03T05:43:27.633Z,100613.69
2023-10-03T05:46:00.278Z,100622.25
2023-10-03T05:48:37.394Z,100619.19
2023-10-03T05:51:09.654Z,100616.28
2023-10-03T05:53:51.397Z,100626.69
2023-10-03T05:56:21.393Z,100620.44
2023-10-03T05:59:01.920Z,100661.09
2023-10-03T06:01:32.683Z,100664.84
2023-10-03T06:04:16.672Z,100648.09
2023-10-03T06:06:49.529Z,100652.19
2023-10-03T06:09:34.086Z,100690.25
2023-10-03T06:12:08.824Z,100664.44
2023-10-03T06:14:42.472Z,100681.97
2023-10-03T06:17:26.320Z,100669.72
2023-10-03T06:19:54.377Z,100678.78
2023-10-03T06:22:28.749Z,100692.19
2023-10-03T06:24:59.054Z,100682.78
2023-10-03T06:27:35.937Z,100683.16
2023-10-03T06:30:04.163Z,100685.56
2023-10-03T06:32:38.721Z,100696.84
2023-10-03T06:35:08.738Z,100732.41
2023-10-03T06:37:47.672Z,100727.31
2023-10-03T06:40:17.650Z,100731.25
2023-10-03T06:42:51.793Z,100698.25
2023-10-03T06:45:22.766Z,100718.13
2023-10-03T06:47:59.709Z,100699.78
2023-10-03T06:50:33.276Z,100708.00
2023-10-03T06:53:11.567Z,100684.75
2023-10-03T06:55:45.695Z,100740.03
2023-10-03T06:58:19.752Z,100721.56
2023-10-03T07:01:04.275Z,100754.91
2023-10-03T07:03:50.608Z,100752.38
2023-10-03T07:06:27.617Z,100732.69
2023-10-03T07:09:15.783Z,100752.19
2023-10-03T07:11:48.652Z,100722.06
2023-10-03T07:14:26.842Z,100737.56
2023-10-03T07:17:01.889Z,100718.38
2023-10-03T07:19:38.754Z,100728.63
2023-10-03T07:22:14.821Z,100727.63
2023-10-03T07:24:49.661Z,100740.09
2023-10-03T07:27:27.545Z,100765.69
2023-10-03T07:29:59.941Z,100741.25
2023-10-03T07:32:33.736Z,100785.25
2023-10-03T07:35:01.754Z,100759.78
2023-10-03T07:37:41.620Z,100757.41
2023-10-03T07:40:20.082Z,100745.31
2023-10-03T07:42:57.606Z,100763.97
2023-10-03T07:45:27.899Z,100767.34
2023-10-03T07:48:03.690Z,100778.19
2023-10-03T07:50:34.180Z,100805.78
2023-10-03T07:53:14.304Z,100772.97
2023-10-03T07:55:44.903Z,100758.81
2023-10-03T07:58:38.247Z,100790.88
2023-10-03T08:01:15.152Z,100794.75
2023-10-03T08:03:51.773Z,100790.72
2023-10-03T08:06:22.892Z,100799.34
2023-10-03T08:09:11.227Z,100789.94
2023-10-03T08:11:48.011Z,100804.78
2023-10-03T08:14:44.972Z,100793.53
2023-10-03T08:17:39.833Z,100807.69
2023-10-03T08:20:11.300Z,100792.22
2023-10-03T08:22:52.666Z,100799.78
2023-10-03T08:25:45.438Z,100817.81
2023-10-03T08:31:05.667Z,100831.63
2023-10-03T08:33:45.312Z,100820.16
2023-10-03T08:36:44.796Z,100817.09
2023-10-03T08:39:23.952Z,100824.03
2023-10-03T08:42:25.711Z,100855.34
2023-10-03T08:45:00.247Z,100870.19
2023-10-03T08:47:44.766Z,100865.59
2023-10-03T08:50:31.251Z,100868.28
2023-10-03T08:53:22.982Z,100846.34
2023-10-03T08:55:58.527Z,100856.16
2023-10-03T08:58:41.197Z,100855.50
2023-10-03T09:01:19.156Z,100864.13
2023-10-03T09:03:59.951Z,100889.22
2023-10-03T09:06:46.027Z,100881.81
2023-10-03T09:09:44.989Z,100889.59
2023-10-03T09:12:21.944Z,100894.13
2023-10-03T09:15:01.859Z,100917.56
2023-10-03T09:17:39.730Z,100925.66
2023-10-03T09:20:23.119Z,100913.22
2023-10-03T09:23:16.755Z,100926.41
2023-10-03T09:25:47.662Z,100922.00
2023-10-03T09:28:46.786Z,100929.75
2023-10-03T09:31:17.747Z,100964.59
2023-10-03T09:33:56.451Z,100976.78
2023-10-03T09:36:38.845Z,101000.91
2023-10-03T09:39:37.702Z,100982.03
2023-10-03T09:42:13.709Z,100984.06
2023-10-03T09:44:52.583Z,100995.94
2023-10-03T09:47:39.328Z,101002.09
2023-10-03T09:50:10.972Z,101034.25
2023-10-03T09:52:52.795Z,101025.03
2023-10-03T09:58:38.862Z,101035.19
2023-10-03T10:01:19.866Z,101044.38
2023-10-03T10:04:01.658Z,101052.44
2023-10-03T10:07:00.920Z,101051.16
2023-10-03T10:09:55.934Z,101054.06
2023-10-03T10:12:32.687Z,101067.22
2023-10-03T10:15:23.109Z,101080.81
2023-10-03T10:17:55.924Z,101088.88
2023-10-03T10:20:45.860Z,101083.97
2023-10-03T10:23:15.117Z,101088.88
2023-10-03T10:26:04.200Z,101082.81
2023-10-03T10:28:46.820Z,101087.59
2023-10-03T10:31:36.925Z,101105.19
2023-10-03T10:34:37.574Z,101130.13
2023-10-03T10:37:23.770Z,101133.59
2023-10-03T10:40:17.264Z,101160.56
2023-10-03T10:43:19.390Z,101136.91
2023-10-03T10:46:33.976Z,101119.47
2023-10-03T10:49:16.823Z,101122.78
2023-10-03T10:51:59.307Z,101140.63
2023-10-03T10:54:39.849Z,101145.47
2023-10-03T10:57:12.301Z,101127.06
2023-10-03T10:59:53.351Z,101166.13
2023-10-03T11:02:35.438Z,101179.75
2023-10-03T11:05:12.304Z,101175.19
2023-10-03T11:07:58.917Z,101165.19
2023-10-03T11:10:56.105Z,101185.41
2023-10-03T11:13:34.908Z,101184.22
2023-10-03T11:16:26.909Z,101172.84
2023-10-03T11:21:50.609Z,101183.66
2023-10-03T11:24:51.496Z,101184.34
2023-10-03T11:27:48.000Z,101204.84
2023-10-03T11:30:30.012Z,101192.44
2023-10-03T11:33:06.918Z,101164.16
2023-10-03T11:36:07.055Z,101163.28
2023-10-03T11:39:08.900Z,101166.44
2023-10-03T11:41:40.266Z,101175.59
2023-10-03T11:44:55.106Z,101203.22
2023-10-03T11:47:40.333Z,101195.00
2023-10-03T11:50:09.545Z,101194.06
2023-10-03T11:52:50.565Z,101218.25
2023-10-03T11:55:25.847Z,101211.56
2023-10-03T11:58:08.894Z,101223.91
2023-10-03T12:00:37.614Z,101233.66
2023-10-03T12:03:21.142Z,101225.91
2023-10-03T12:05:58.650Z,101231.19
2023-10-03T12:08:49.153Z,101227.94
2023-10-03T12:11:21.493Z,101219.31
2023-10-03T12:13:57.436Z,101234.56
2023-10-03T12:19:31.794Z,101236.53
2023-10-03T12:22:16.992Z,101263.69
2023-10-03T12:24:55.734Z,101281.63
2023-10-03T12:27:25.294Z,101300.28
2023-10-03T12:30:01.269Z,101292.06
2023-10-03T12:32:28.690Z,101307.44
2023-10-03T12:37:47.932Z,101312.22
2023-10-03T12:40:30.914Z,101318.84
2023-10-03T12:42:58.672Z,101325.47
2023-10-03T12:48:40.899Z,101325.09
2023-10-03T12:53:58.512Z,101366.75
2023-10-03T12:56:35.832Z,101354.44
2023-10-03T12:59:05.763Z,101357.91
2023-10-03T13:01:42.092Z,101387.34
2023-10-03T13:04:13.383Z,101404.56
2023-10-03T13:06:50.308Z,101421.94
2023-10-03T13:09:39.143Z,101416.00
2023-10-03T13:12:15.209Z,101432.91
2023-10-03T13:14:54.330Z,101423.38
2023-10-03T13:17:30.597Z,101432.31
2023-10-03T13:20:20.762Z,101433.81
2023-10-03T13:23:02.998Z,101445.00
2023-10-03T13:25:35.075Z,101442.72
2023-10-03T13:28:12.387Z,101437.50
2023-10-03T13:30:43.382Z,101453.41
2023-10-03T13:33:24.520Z,101468.56
2023-10-03T13:36:04.555Z,101465.75
2023-10-03T13:38:40.964Z,101472.56
2023-10-03T13:41:19.138Z,101464.16
2023-10-03T13:43:54.142Z,101478.69
2023-10-03T13:46:27.981Z,101462.47
2023-10-03T13:52:02.885Z,101500.50
2023-10-03T13:54:41.562Z,101466.16
2023-10-03T13:57:24.045Z,101477.47
2023-10-03T13:59:54.910Z,101501.50
2023-10-03T14:02:35.780Z,101474.22
2023-10-03T14:05:07.889Z,101493.03
2023-10-03T14:07:46.250Z,101495.28
2023-10-03T14:10:26.687Z,101508.56
2023-10-03T14:13:01.208Z,101488.34
2023-10-03T14:15:33.982Z,101493.16
2023-10-03T14:18:13.946Z,101520.13
2023-10-03T14:20:55.686Z,101491.97
2023-10-03T14:23:52.429Z,101497.03
2023-10-03T14:26:29.029Z,101509.75
2023-10-03T14:29:06.435Z,101535.75
2023-10-03T14:31:35.306Z,101509.72
2023-10-03T14:34:17.113Z,101520.66
2023-10-03T14:36:48.460Z,101528.59
2023-10-03T14:39:49.080Z,101536.66
2023-10-03T14:42:23.346Z,101554.97
2023-10-03T14:45:07.296Z,101554.53
2023-10-03T14:47:43.165Z,101579.59
2023-10-03T14:50:24.318Z,101570.38
2023-10-03T14:52:52.653Z,101554.47
2023-10-03T14:55:31.573Z,101598.88
2023-10-03T14:58:01.868Z,101585.25
2023-10-03T15:00:43.814Z,101603.53
2023-10-03T15:03:16.724Z,101603.09
2023-10-03T15:06:03.152Z,101602.94
2023-10-03T15:08:42.968Z,101627.13
2023-10-03T15:11:27.162Z,101615.03
2023-10-03T15:14:05.532Z,101618.00
2023-10-03T15:16:43.068Z,101650.44
2023-10-03T15:19:10.688Z,101677.78
2023-10-03T15:21:49.444Z,101666.13
2023-10-03T15:24:29.028Z,101663.59
2023-10-03T15:27:02.872Z,101678.59
2023-10-03T15:29:38.037Z,101692.00
2023-10-03T15:32:06.156Z,101676.91
2023-10-03T15:34:49.233Z,101664.97
2023-10-03T15:37:19.458Z,101678.47
2023-10-03T15:40:03.602Z,101655.69
2023-10-03T15:42:35.960Z,101680.03
2023-10-03T15:45:22.025Z,101657.66
2023-10-03T15:47:49.809Z,101671.69
2023-10-03T15:50:28.170Z,101688.00
2023-10-03T15:52:58.996Z,101676.44
2023-10-03T15:55:38.951Z,101680.84
2023-10-03T15:58:09.860Z,101701.84
2023-10-03T16:01:03.941Z,101715.03
2023-10-03T16:03:35.216Z,101704.91
2023-10-03T16:06:13.047Z,101715.72
2023-10-03T16:08:45.938Z,101717.75
2023-10-03T16:11:25.334Z,101738.38
2023-10-03T16:13:54.567Z,101732.91
2023-10-03T16:16:32.251Z,101724.41
2023-10-03T16:18:59.821Z,101744.25
2023-10-03T16:22:08.204Z,101748.53
2023-10-03T16:24:43.010Z,101735.91
2023-10-03T16:27:20.219Z,101757.31
2023-10-03T16:29:50.311Z,101764.88
2023-10-03T16:32:31.326Z,101748.91
2023-10-03T16:35:14.047Z,101774.13
2023-10-03T16:37:41.743Z,101787.19
2023-10-03T16:43:58.370Z,101794.72
2023-10-03T16:46:33.197Z,101777.16
2023-10-03T16:49:03.939Z,101803.13
2023-10-03T16:51:38.175Z,101802.03
2023-10-03T16:54:19.439Z,101818.09
2023-10-03T16:56:59.042Z,101808.22
2023-10-03T16:59:39.928Z,101807.59
2023-10-03T17:02:17.171Z,101791.88
2023-10-03T17:04:54.541Z,101799.16
2023-10-03T17:07:27.722Z,101821.56
2023-10-03T17:10:02.313Z,101833.53
2023-10-03T17:12:46.371Z,101810.09
2023-10-03T17:15:24.208Z,101841.41
2023-10-03T17:18:00.945Z,101853.22
2023-10-03T17:20:39.175Z,101854.66
2023-10-03T17:23:18.224Z,101836.50
2023-10-03T17:25:59.505Z,101867.75
2023-10-03T17:28:41.902Z,101863.41
2023-10-03T17:31:22.354Z,101867.03
2023-10-03T17:33:55.614Z,101875.53
2023-10-03T17:36:39.662Z,101878.41
2023-10-03T17:39:15.607Z,101876.09
2023-10-03T17:42:00.391Z,101871.41
2023-10-03T17:44:32.662Z,101869.16
2023-10-03T17:47:07.333Z,101895.88
2023-10-03T17:49:42.788Z,101867.91
2023-10-03T17:52:23.250Z,101873.59
2023-10-03T17:54:57.110Z,101912.41
2023-10-03T17:57:32.893Z,101906.31
2023-10-03T18:00:13.898Z,101880.66
2023-10-03T18:02:54.717Z,101897.13
2023-10-03T18:05:34.274Z,101903.13
2023-10-03T18:08:04.830Z,101920.63
2023-10-03T18:11:00.419Z,101889.78
2023-10-03T18:13:55.036Z,101899.50
2023-10-03T18:16:29.780Z,101931.16
2023-10-03T18:19:11.211Z,101923.94
2023-10-03T18:21:47.428Z,101901.84
2023-10-03T18:24:25.151Z,101909.03
2023-10-03T18:29:42.460Z,101924.00
2023-10-03T18:32:23.288Z,101931.16
2023-10-03T18:35:00.782Z,101933.94
2023-10-03T18:37:37.147Z,101926.00
2023-10-03T18:40:13.747Z,101940.00
2023-10-03T18:42:49.111Z,101949.41
2023-10-03T18:45:18.745Z,101940.22
2023-10-03T18:47:59.688Z,101966.97
2023-10-03T18:50:28.599Z,101976.25
2023-10-03T18:53:09.198Z,101989.63
2023-10-03T18:55:45.840Z,101968.00
2023-10-03T18:58:25.215Z,101986.06
2023-10-03T19:00:57.741Z,102003.53
2023-10-03T19:03:32.430Z,102010.72
2023-10-03T19:06:15.761Z,102009.03
2023-10-03T19:08:51.544Z,102015.53
2023-10-03T19:11:47.215Z,102017.91
2023-10-03T19:14:24.853Z,102004.44
2023-10-03T19:16:56.775Z,102037.28
2023-10-03T19:19:34.645Z,102016.31
2023-10-03T19:22:14.990Z,102019.63
2023-10-03T19:25:24.902Z,102034.75
2023-10-03T19:27:53.145Z,102049.06
2023-10-03T19:30:39.068Z,102034.22
2023-10-03T19:33:07.227Z,102038.81
2023-10-03T19:35:52.837Z,102037.53
2023-10-03T19:38:23.206Z,102052.50
2023-10-03T19:41:03.869Z,102082.38
2023-10-03T19:43:38.240Z,102061.41
2023-10-03T19:49:01.267Z,102068.25
2023-10-03T19:51:41.431Z,102072.63
2023-10-03T19:54:09.740Z,102087.41
2023-10-03T19:56:44.415Z,102091.06
2023-10-03T19:59:24.192Z,102078.31
2023-10-03T20:02:04.956Z,102073.38
2023-10-03T20:04:44.924Z,102080.97
2023-10-03T20:07:25.530Z,102082.50
2023-10-03T20:10:05.474Z,102085.34
2023-10-03T20:12:39.738Z,102081.84
2023-10-03T20:15:30.889Z,102092.53
2023-10-03T20:18:02.895Z,102094.56
2023-10-03T20:20:38.392Z,102124.84
2023-10-03T20:23:08.266Z,102121.13
2023-10-03T20:25:51.620Z,102130.00
2023-10-03T20:28:25.696Z,102107.41
2023-10-03T20:31:05.179Z,102134.28
2023-10-03T20:33:35.705Z,102139.84
2023-10-03T20:36:16.237Z,102135.69
2023-10-03T20:38:50.728Z,102122.19
2023-10-03T20:41:31.157Z,102110.09
2023-10-03T20:44:02.520Z,102123.94
2023-10-03T20:46:38.114Z,102130.44
2023-10-03T20:49:06.436Z,102091.34
2023-10-03T20:51:47.192Z,102099.19
2023-10-03T20:54:15.885Z,102123.59
2023-10-03T20:56:54.755Z,102134.50
2023-10-03T20:59:26.466Z,102120.03
2023-10-03T21:02:02.551Z,102106.47
2023-10-03T21:04:34.530Z,102113.41
2023-10-03T21:07:12.815Z,102120.59
2023-10-03T21:09:43.967Z,102105.34
2023-10-03T21:12:25.669Z,102122.63
2023-10-03T21:15:00.131Z,102122.63
2023-10-03T21:17:47.456Z,102128.16
2023-10-03T21:20:36.866Z,102128.47
2023-10-03T21:23:18.342Z,102114.44
2023-10-03T21:25:51.148Z,102107.03
2023-10-03T21:28:32.017Z,102140.84
2023-10-03T21:31:03.263Z,102109.38
2023-10-03T21:33:46.141Z,102143.19
2023-10-03T21:36:27.425Z,102111.59
2023-10-03T21:39:48.617Z,102148.00
2023-10-03T21:42:29.329Z,102142.84
2023-10-03T21:45:00.753Z,102130.00
2023-10-03T21:47:39.254Z,102124.94
2023-10-03T21:50:08.002Z,102144.41
2023-10-03T21:52:53.456Z,102138.63
2023-10-03T21:55:40.855Z,102131.66
2023-10-03T21:58:09.499Z,102147.75
2023-10-03T22:03:51.468Z,102141.53
2023-10-03T22:06:29.429Z,102120.44
2023-10-03T22:08:58.498Z,102127.78
2023-10-03T22:11:43.830Z,102129.41
2023-10-03T22:14:21.870Z,102168.47
2023-10-03T22:16:53.476Z,102145.53
2023-10-03T22:19:31.129Z,102146.94
2023-10-03T22:21:59.577Z,102148.31
2023-10-03T22:24:40.006Z,102158.16
2023-10-03T22:32:48.841Z,102158.88
2023-10-03T22:35:25.959Z,102147.53
2023-10-03T22:38:07.218Z,102147.97
2023-10-03T22:43:45.494Z,102175.50
2023-10-03T22:46:23.939Z,102140.16
2023-10-03T22:48:54.494Z,102133.38
2023-10-03T22:51:32.656Z,102174.84
2023-10-03T22:54:04.181Z,102176.66
2023-10-03T22:56:42.461Z,102137.88
2023-10-03T22:59:15.136Z,102152.16
2023-10-03T23:02:24.014Z,102176.38
2023-10-03T23:07:47.525Z,102144.81
2023-10-03T23:10:22.971Z,102176.97
2023-10-03T23:13:38.832Z,102173.53
2023-10-03T23:16:30.978Z,102144.75
2023-10-03T23:22:43.158Z,102172.38
2023-10-03T23:25:29.063Z,102162.50
2023-10-03T23:28:08.755Z,102165.16
2023-10-03T23:31:08.703Z,102153.91
2023-10-03T23:33:46.308Z,102158.28
2023-10-03T23:36:19.893Z,102184.03
2023-10-03T23:38:54.526Z,102153.16
2023-10-03T23:41:29.738Z,102181.47
2023-10-03T23:43:58.979Z,102171.38
2023-10-03T23:46:35.673Z,102158.59
2023-10-03T23:49:16.076Z,102187.84
